Peoria, IL (61603)

07:16 AM CDT del 25 Settembre 2016 (GMT -0500)
DracoPhyre PWS | | Change Station

Alt. 640 ft 40.72 °N, 89.59 °W | Updated 22 seconds ago

Clear
Sereno
70.0 °F
Sembra 70.0 °F
N
0.7
Vento Variabile Vento da SE
Gusts 3.8 mph

Oggi
Massima -- | Minima -- °F
--% Possibilità di precip.
Ieri
Massima -- | Minima -- °F
Precip. -- in
Pressione 30.04 in
Visibilità 5.0 miglia
Nuvole Sereno
Punto di rugiada 70 °F
Umidità 99%
Piovosità 0.00 in
Spessore del manto nevoso Non disponibile.
6:49 AM 6:49 PM
Luna calante, 28% visible
METAR KPIA 251154Z 13004KT 5SM BR CLR 21/20 A3005 RMK AO2 SLP171 T02060200 10228 20206 58001
Pressione 30.04 in
Visibilità 5.0 miglia
Nuvole Sereno
Punto di rugiada 70 °F
Umidità 99%
Piovosità 0.00 in
Spessore del manto nevoso Non disponibile.
6:49 AM 6:49 PM
Luna calante, 28% visible
METAR KPIA 251154Z 13004KT 5SM BR CLR 21/20 A3005 RMK AO2 SLP171 T02060200 10228 20206 58001

10-Day Weather Forecast

Almanac

Astronomia

Sep. 25, 2016 Alba Tramonto
Ora attuale
Crepuscolo civile
Crepuscolo nautico
Crepuscolo astronomico
Luna
Estensione della luce visibile
Lunghezza del giorno
Tomorrow will be .
, % of the Moon is Illuminated

Gli estremi di oggi

State Highs State Lows

Community

WunderPhotos

Upload Photos

1,941,583 foto caricate!

WunderBlog® & News

Nearby

Qualità dell'aria

  Qualità dell'aria Indice AQ Inquinante
Not available.

Profondità neve

Stazione Profondità Altitudine

Attività sismica

Città  Distanza Mag. Data & Ora
Minimo Magnitudo Mostrato è 2.5.

Temperature delle acque costiere

Località Temperatura

Stations

Stazioni meteo nelle vicinanze

Ubicazione della stazione Temp. Raffreddamento del vento Punto di rugiada Umidità Vento Precip. Alt. Aggiornato Tipo
                   

Watches & Warnings

There are currently no watches in effect.